createdAt,value
2022-10-14T00:01:23.457Z,4.80
2022-10-14T00:03:52.515Z,5.50
2022-10-14T00:06:24.008Z,5.18
2022-10-14T00:08:54.145Z,4.88
2022-10-14T00:11:24.398Z,4.40
2022-10-14T00:13:55.503Z,5.00
2022-10-14T00:16:26.905Z,5.75
2022-10-14T00:18:55.195Z,4.10
2022-10-14T00:21:23.482Z,3.50
2022-10-14T00:23:53.243Z,3.70
2022-10-14T00:26:25.615Z,4.38
2022-10-14T00:28:54.280Z,3.75
2022-10-14T00:31:23.383Z,3.67
2022-10-14T00:33:51.913Z,8.75
2022-10-14T00:36:22.243Z,2.95
2022-10-14T00:38:51.117Z,3.50
2022-10-14T00:41:23.404Z,3.05
2022-10-14T00:43:57.350Z,2.78
2022-10-14T00:46:27.383Z,11.77
2022-10-14T00:49:02.975Z,3.63
2022-10-14T00:51:31.393Z,3.17
2022-10-14T00:53:59.713Z,3.40
2022-10-14T00:56:31.053Z,3.10
2022-10-14T00:59:01.063Z,3.88
2022-10-14T01:01:29.585Z,3.90
2022-10-14T01:03:57.812Z,6.30
2022-10-14T01:06:40.330Z,4.25
2022-10-14T01:09:16.363Z,3.47
2022-10-14T01:12:09.827Z,2.70
2022-10-14T01:14:45.853Z,2.72
2022-10-14T01:17:24.459Z,2.63
2022-10-14T01:20:28.998Z,2.40
2022-10-14T01:23:13.131Z,2.55
2022-10-14T01:25:54.089Z,2.97
2022-10-14T01:28:37.041Z,2.55
2022-10-14T01:31:10.979Z,2.83
2022-10-14T01:33:42.030Z,2.53
2022-10-14T01:36:14.070Z,3.03
2022-10-14T01:38:46.061Z,2.42
2022-10-14T01:41:19.430Z,4.63
2022-10-14T01:43:50.762Z,2.65
2022-10-14T01:46:23.529Z,3.88
2022-10-14T01:48:55.885Z,3.10
2022-10-14T01:51:30.643Z,3.20
2022-10-14T01:54:03.860Z,2.83
2022-10-14T01:56:37.065Z,1.95
2022-10-14T01:59:11.419Z,2.50
2022-10-14T02:01:41.323Z,2.58
2022-10-14T02:04:16.569Z,2.65
2022-10-14T02:06:50.837Z,2.05
2022-10-14T02:09:26.303Z,2.17
2022-10-14T02:12:09.330Z,2.30
2022-10-14T02:14:45.217Z,2.00
2022-10-14T02:17:20.691Z,1.95
2022-10-14T02:19:54.834Z,1.60
2022-10-14T02:22:29.130Z,1.80
2022-10-14T02:25:19.146Z,2.35
2022-10-14T02:27:50.170Z,2.10
2022-10-14T02:30:20.276Z,1.85
2022-10-14T02:32:58.342Z,2.15
2022-10-14T02:35:29.334Z,2.35
2022-10-14T02:37:59.202Z,2.45
2022-10-14T02:40:33.949Z,1.98
2022-10-14T02:43:02.148Z,2.15
2022-10-14T02:45:31.150Z,2.10
2022-10-14T02:48:02.172Z,2.40
2022-10-14T02:50:30.903Z,8.20
2022-10-14T02:52:59.162Z,9.82
2022-10-14T02:55:27.761Z,6.38
2022-10-14T02:57:55.922Z,6.43
2022-10-14T03:00:24.091Z,2.92
2022-10-14T03:02:54.067Z,2.17
2022-10-14T03:05:24.058Z,1.70
2022-10-14T03:07:52.214Z,1.50
2022-10-14T03:10:21.737Z,1.67
2022-10-14T03:12:50.267Z,2.40
2022-10-14T03:15:28.639Z,1.85
2022-10-14T03:17:56.982Z,2.60
2022-10-14T03:20:35.838Z,1.42
2022-10-14T03:23:04.705Z,1.60
2022-10-14T03:25:36.347Z,2.40
2022-10-14T03:28:08.800Z,2.05
2022-10-14T03:30:47.176Z,2.50
2022-10-14T03:33:20.695Z,3.05
2022-10-14T03:36:02.164Z,1.88
2022-10-14T03:38:42.228Z,2.08
2022-10-14T03:41:18.037Z,1.98
2022-10-14T03:43:46.182Z,2.40
2022-10-14T03:46:14.838Z,1.67
2022-10-14T03:48:43.422Z,1.95
2022-10-14T03:51:13.110Z,2.20
2022-10-14T03:53:43.115Z,2.50
2022-10-14T03:56:13.867Z,2.13
2022-10-14T03:58:42.431Z,2.28
2022-10-14T04:01:15.087Z,2.00
2022-10-14T04:04:06.350Z,2.03
2022-10-14T04:06:37.834Z,6.88
2022-10-14T04:09:08.074Z,1.83
2022-10-14T04:11:39.714Z,2.30
2022-10-14T04:14:11.431Z,2.50
2022-10-14T04:16:49.851Z,2.65
2022-10-14T04:19:19.427Z,5.93
2022-10-14T04:21:49.182Z,2.85
2022-10-14T04:24:20.782Z,3.30
2022-10-14T04:26:55.206Z,3.30
2022-10-14T04:29:33.143Z,2.55
2022-10-14T04:32:07.538Z,3.20
2022-10-14T04:34:37.549Z,2.70
2022-10-14T04:37:09.371Z,2.80
2022-10-14T04:39:48.909Z,3.28
2022-10-14T04:42:18.387Z,3.47
2022-10-14T04:44:51.342Z,2.90
2022-10-14T04:47:26.385Z,2.80
2022-10-14T04:49:59.693Z,3.65
2022-10-14T04:52:31.724Z,3.15
2022-10-14T04:55:07.519Z,2.85
2022-10-14T04:57:43.232Z,2.83
2022-10-14T05:00:13.920Z,3.35
2022-10-14T05:02:54.260Z,3.28
2022-10-14T05:05:29.806Z,3.60
2022-10-14T05:08:01.701Z,3.78
2022-10-14T05:10:40.555Z,5.45
2022-10-14T05:13:13.163Z,3.10
2022-10-14T05:15:54.745Z,3.47
2022-10-14T05:18:23.567Z,3.30
2022-10-14T05:21:02.977Z,3.67
2022-10-14T05:23:48.548Z,3.40
2022-10-14T05:26:17.818Z,3.80
2022-10-14T05:28:46.670Z,3.60
2022-10-14T05:31:15.787Z,3.60
2022-10-14T05:33:51.820Z,3.72
2022-10-14T05:36:20.901Z,3.53
2022-10-14T05:38:51.405Z,3.50
2022-10-14T05:41:23.850Z,3.47
2022-10-14T05:43:52.936Z,3.63
2022-10-14T05:46:23.390Z,5.53
2022-10-14T05:48:57.919Z,3.10
2022-10-14T05:51:27.076Z,3.42
2022-10-14T05:54:04.788Z,3.45
2022-10-14T05:56:34.381Z,3.45
2022-10-14T05:59:04.702Z,3.08
2022-10-14T06:01:37.150Z,3.88
2022-10-14T06:04:07.338Z,3.30
2022-10-14T06:06:36.610Z,3.95
2022-10-14T06:09:11.243Z,3.67
2022-10-14T06:11:41.959Z,7.65
2022-10-14T06:14:11.794Z,3.75
2022-10-14T06:16:42.638Z,3.45
2022-10-14T06:19:12.928Z,4.78
2022-10-14T06:21:46.704Z,6.85
2022-10-14T06:24:19.558Z,3.13
2022-10-14T06:26:51.404Z,3.72
2022-10-14T06:29:21.098Z,3.90
2022-10-14T06:31:50.973Z,3.20
2022-10-14T06:34:25.373Z,3.40
2022-10-14T06:36:59.785Z,6.15
2022-10-14T06:39:33.621Z,2.80
2022-10-14T06:42:08.342Z,3.95
2022-10-14T06:44:43.547Z,3.78
2022-10-14T06:47:13.362Z,5.93
2022-10-14T06:49:43.062Z,3.70
2022-10-14T06:52:13.333Z,4.05
2022-10-14T06:54:48.306Z,6.70
2022-10-14T06:57:19.542Z,4.70
2022-10-14T06:59:49.652Z,4.10
2022-10-14T07:02:20.299Z,8.55
2022-10-14T07:04:52.265Z,4.50
2022-10-14T07:07:22.823Z,4.78
2022-10-14T07:09:54.848Z,4.45
2022-10-14T07:12:25.586Z,5.60
2022-10-14T07:14:56.293Z,5.00
2022-10-14T07:17:29.693Z,5.10
2022-10-14T07:20:00.279Z,4.60
2022-10-14T07:22:37.717Z,4.57
2022-10-14T07:25:15.164Z,5.07
2022-10-14T07:27:45.765Z,5.07
2022-10-14T07:30:19.879Z,5.00
2022-10-14T07:32:57.367Z,4.93
2022-10-14T07:35:39.594Z,4.57
2022-10-14T07:38:11.681Z,4.80
2022-10-14T07:40:45.845Z,4.60
2022-10-14T07:43:17.124Z,5.60
2022-10-14T07:45:51.421Z,5.50
2022-10-14T07:48:32.643Z,5.73
2022-10-14T07:51:18.613Z,6.43
2022-10-14T07:53:50.026Z,7.13
2022-10-14T07:56:21.823Z,5.00
2022-10-14T07:58:52.338Z,6.03
2022-10-14T08:01:28.286Z,5.00
2022-10-14T08:03:58.609Z,5.27
2022-10-14T08:06:33.936Z,4.67
2022-10-14T08:09:08.272Z,4.80
2022-10-14T08:11:40.886Z,7.70
2022-10-14T08:14:14.017Z,5.50
2022-10-14T08:16:44.785Z,3.87
2022-10-14T08:19:15.840Z,5.70
2022-10-14T08:21:50.050Z,4.80
2022-10-14T08:24:20.680Z,4.73
2022-10-14T08:27:01.641Z,4.13
2022-10-14T08:29:35.777Z,4.40
2022-10-14T08:32:07.935Z,3.87
2022-10-14T08:34:38.329Z,3.70
2022-10-14T08:37:08.932Z,6.47
2022-10-14T08:39:40.575Z,4.43
2022-10-14T08:42:32.404Z,4.87
2022-10-14T08:45:10.700Z,3.40
2022-10-14T08:47:46.608Z,2.50
2022-10-14T08:50:33.091Z,2.70
2022-10-14T08:53:10.959Z,3.70
2022-10-14T08:55:46.994Z,5.13
2022-10-14T08:58:30.298Z,6.40
2022-10-14T09:01:09.925Z,3.30
2022-10-14T09:03:48.223Z,2.63
2022-10-14T09:06:24.968Z,3.57
2022-10-14T09:08:59.628Z,3.27
2022-10-14T09:11:39.730Z,3.30
2022-10-14T09:14:19.536Z,3.17
2022-10-14T09:16:56.228Z,3.40
2022-10-14T09:19:34.330Z,4.83
2022-10-14T09:22:05.091Z,2.83
2022-10-14T09:24:41.068Z,3.63
2022-10-14T09:27:23.539Z,3.80
2022-10-14T09:30:01.563Z,3.03
2022-10-14T09:32:39.344Z,3.73
2022-10-14T09:35:19.671Z,4.07
2022-10-14T09:37:52.221Z,5.87
2022-10-14T09:40:34.450Z,4.30
2022-10-14T09:43:18.322Z,3.90
2022-10-14T09:46:00.817Z,5.13
2022-10-14T09:48:48.651Z,6.90
2022-10-14T09:51:23.294Z,5.00
2022-10-14T09:53:57.155Z,4.30
2022-10-14T09:56:40.606Z,4.00
2022-10-14T09:59:23.502Z,4.23
2022-10-14T10:02:10.935Z,5.13
2022-10-14T10:04:49.041Z,6.77
2022-10-14T10:07:39.415Z,4.13
2022-10-14T10:10:20.800Z,3.67
2022-10-14T10:12:51.671Z,5.67
2022-10-14T10:15:24.041Z,5.20
2022-10-14T10:18:00.791Z,10.20
2022-10-14T10:20:37.498Z,4.53
2022-10-14T10:23:27.147Z,4.67
2022-10-14T10:26:18.077Z,5.10
2022-10-14T10:28:49.548Z,5.40
2022-10-14T10:31:44.934Z,5.33
2022-10-14T10:34:54.485Z,4.20
2022-10-14T10:37:29.237Z,3.70
2022-10-14T10:40:25.740Z,3.90
2022-10-14T10:43:09.513Z,5.43
2022-10-14T10:45:52.464Z,3.20
2022-10-14T10:48:27.780Z,4.50
2022-10-14T10:51:02.145Z,3.23
2022-10-14T10:54:07.833Z,4.40
2022-10-14T10:56:43.866Z,3.63
2022-10-14T10:59:47.749Z,4.10
2022-10-14T11:02:48.531Z,2.70
2022-10-14T11:05:23.494Z,2.57
2022-10-14T11:08:29.967Z,3.33
2022-10-14T11:11:22.954Z,2.63
2022-10-14T11:13:57.472Z,3.00
2022-10-14T11:16:31.956Z,2.27
2022-10-14T11:19:09.772Z,2.90
2022-10-14T11:21:45.371Z,2.03
2022-10-14T11:24:26.563Z,2.00
2022-10-14T11:27:05.909Z,3.90
2022-10-14T11:30:13.832Z,3.17
2022-10-14T11:32:58.034Z,2.10
2022-10-14T11:35:36.251Z,2.00
2022-10-14T11:38:20.820Z,2.17
2022-10-14T11:40:56.048Z,1.40
2022-10-14T11:43:35.313Z,1.27
2022-10-14T11:46:08.690Z,1.50
2022-10-14T11:48:43.759Z,1.10
2022-10-14T11:51:18.541Z,1.53
2022-10-14T11:53:56.627Z,3.80
2022-10-14T11:56:34.002Z,1.37
2022-10-14T11:59:18.782Z,1.30
2022-10-14T12:01:49.135Z,1.87
2022-10-14T12:04:25.741Z,2.83
2022-10-14T12:07:01.419Z,2.37
2022-10-14T12:09:39.346Z,1.57
2022-10-14T12:12:12.885Z,2.03
2022-10-14T12:14:44.478Z,1.73
2022-10-14T12:17:20.702Z,1.10
2022-10-14T12:19:51.243Z,1.57
2022-10-14T12:22:23.834Z,1.50
2022-10-14T12:24:55.036Z,1.70
2022-10-14T12:27:26.994Z,1.20
2022-10-14T12:29:58.365Z,1.57
2022-10-14T12:32:27.919Z,1.87
2022-10-14T12:34:57.497Z,1.63
2022-10-14T12:37:50.268Z,1.90
2022-10-14T12:40:31.773Z,1.70
2022-10-14T12:43:20.038Z,1.93
2022-10-14T12:46:04.730Z,2.20
2022-10-14T12:48:35.563Z,3.00
2022-10-14T12:51:14.611Z,4.43
2022-10-14T12:53:57.683Z,2.77
2022-10-14T12:56:35.306Z,2.17
2022-10-14T12:59:07.712Z,1.33
2022-10-14T13:01:39.116Z,1.73
2022-10-14T13:04:19.958Z,1.73
2022-10-14T13:07:46.195Z,3.20
2022-10-14T13:10:47.124Z,1.73
2022-10-14T13:14:01.396Z,1.67
2022-10-14T13:17:01.481Z,1.67
2022-10-14T13:19:44.688Z,2.23
2022-10-14T13:22:40.772Z,2.23
2022-10-14T13:25:16.433Z,2.13
2022-10-14T13:27:55.154Z,1.80
2022-10-14T13:30:34.044Z,1.77
2022-10-14T13:33:13.238Z,1.23
2022-10-14T13:35:50.078Z,1.60
2022-10-14T13:38:20.423Z,1.90
2022-10-14T13:40:52.443Z,1.97
2022-10-14T13:43:26.775Z,3.60
2022-10-14T13:46:04.411Z,1.90
2022-10-14T13:48:36.803Z,1.50
2022-10-14T13:51:35.956Z,2.10
2022-10-14T13:54:16.435Z,2.23
2022-10-14T13:56:45.201Z,1.77
2022-10-14T13:59:43.215Z,1.40
2022-10-14T14:02:16.445Z,4.83
2022-10-14T14:04:51.636Z,2.33
2022-10-14T14:07:47.711Z,2.03
2022-10-14T14:10:18.547Z,1.73
2022-10-14T14:12:47.682Z,1.40
2022-10-14T14:15:24.405Z,1.30
2022-10-14T14:17:53.126Z,1.40
2022-10-14T14:20:25.809Z,1.00
2022-10-14T14:22:55.034Z,1.40
2022-10-14T14:25:35.744Z,1.17
2022-10-14T14:28:16.046Z,1.60
2022-10-14T14:30:54.604Z,1.67
2022-10-14T14:33:29.846Z,1.83
2022-10-14T14:36:02.446Z,1.80
2022-10-14T14:38:33.355Z,1.80
2022-10-14T14:41:06.752Z,1.50
2022-10-14T14:43:40.817Z,1.93
2022-10-14T14:46:20.587Z,2.20
2022-10-14T14:48:54.348Z,1.50
2022-10-14T14:51:25.720Z,1.77
2022-10-14T14:53:56.026Z,1.70
2022-10-14T14:56:27.935Z,1.57
2022-10-14T14:58:59.100Z,1.30
2022-10-14T15:01:29.530Z,2.40
2022-10-14T15:04:13.071Z,2.00
2022-10-14T15:06:51.272Z,2.70
2022-10-14T15:09:25.373Z,1.90
2022-10-14T15:11:57.762Z,1.63
2022-10-14T15:14:30.754Z,2.00
2022-10-14T15:17:00.102Z,2.10
2022-10-14T15:19:38.118Z,5.93
2022-10-14T15:22:27.143Z,4.00
2022-10-14T15:25:09.750Z,2.07
2022-10-14T15:27:53.631Z,2.77
2022-10-14T15:30:24.664Z,2.37
2022-10-14T15:32:54.674Z,2.30
2022-10-14T15:35:24.191Z,3.30
2022-10-14T15:37:54.210Z,2.70
2022-10-14T15:40:24.450Z,3.13
2022-10-14T15:42:52.642Z,3.70
2022-10-14T15:45:21.639Z,3.50
2022-10-14T15:47:54.456Z,2.43
2022-10-14T15:50:25.079Z,2.87
2022-10-14T15:52:56.879Z,3.27
2022-10-14T15:55:27.634Z,2.90
2022-10-14T15:57:55.896Z,4.93
2022-10-14T16:00:26.143Z,2.63
2022-10-14T16:02:58.462Z,4.47
2022-10-14T16:05:29.111Z,3.60
2022-10-14T16:07:58.665Z,3.63
2022-10-14T16:10:29.378Z,5.03
2022-10-14T16:13:00.659Z,3.43
2022-10-14T16:15:33.398Z,3.23
2022-10-14T16:18:01.878Z,3.33
2022-10-14T16:20:31.131Z,4.10
2022-10-14T16:23:01.340Z,3.77
2022-10-14T16:25:35.582Z,4.60
2022-10-14T16:28:07.535Z,4.50
2022-10-14T16:30:40.055Z,4.60
2022-10-14T16:33:08.682Z,4.90
2022-10-14T16:35:37.027Z,4.77
2022-10-14T16:38:06.589Z,6.57
2022-10-14T16:40:36.812Z,4.87
2022-10-14T16:43:07.354Z,4.10
2022-10-14T16:45:35.624Z,5.83
2022-10-14T16:48:04.062Z,5.97
2022-10-14T16:50:32.301Z,5.60
2022-10-14T16:53:17.889Z,5.37
2022-10-14T16:55:47.494Z,4.87
2022-10-14T16:58:15.699Z,5.90
2022-10-14T17:00:44.046Z,6.17
2022-10-14T17:03:12.745Z,5.60
2022-10-14T17:05:40.971Z,5.73
2022-10-14T17:08:09.349Z,5.73
2022-10-14T17:10:39.634Z,6.50
2022-10-14T17:13:09.287Z,6.00
2022-10-14T17:15:39.630Z,6.03
2022-10-14T17:18:12.079Z,10.57
2022-10-14T17:20:40.707Z,6.53
2022-10-14T17:23:10.410Z,7.93
2022-10-14T17:25:41.021Z,6.17
2022-10-14T17:28:12.759Z,9.53
2022-10-14T17:30:41.133Z,5.97
2022-10-14T17:33:09.617Z,6.00
2022-10-14T17:35:37.862Z,7.80
2022-10-14T17:38:07.598Z,11.23
2022-10-14T17:40:35.715Z,7.87
2022-10-14T17:43:03.915Z,7.97
2022-10-14T17:45:33.411Z,8.43
2022-10-14T17:48:01.565Z,10.97
2022-10-14T17:50:30.779Z,13.20
2022-10-14T17:52:59.557Z,11.83
2022-10-14T17:55:27.701Z,13.50
2022-10-14T17:57:55.888Z,13.53
2022-10-14T18:00:24.407Z,14.33
2022-10-14T18:02:53.917Z,14.80
2022-10-14T18:05:22.048Z,8.80
2022-10-14T18:07:50.180Z,9.40
2022-10-14T18:10:18.410Z,9.93
2022-10-14T18:12:46.659Z,8.27
2022-10-14T18:15:14.764Z,9.20
2022-10-14T18:17:43.083Z,7.13
2022-10-14T18:20:12.895Z,10.53
2022-10-14T18:22:41.149Z,7.93
2022-10-14T18:25:09.549Z,9.32
2022-10-14T18:27:37.758Z,7.27
2022-10-14T18:30:07.053Z,8.53
2022-10-14T18:32:35.387Z,8.90
2022-10-14T18:35:05.210Z,10.00
2022-10-14T18:37:34.681Z,9.73
2022-10-14T18:40:02.897Z,13.17
2022-10-14T18:42:31.027Z,11.50
2022-10-14T18:44:59.879Z,15.10
2022-10-14T18:47:29.028Z,15.48
2022-10-14T18:49:59.684Z,14.07
2022-10-14T18:52:27.898Z,12.23
2022-10-14T18:54:57.509Z,14.40
2022-10-14T18:57:25.798Z,14.13
2022-10-14T18:59:53.889Z,12.13
2022-10-14T19:02:22.918Z,11.20
2022-10-14T19:04:51.218Z,12.20
2022-10-14T19:07:19.355Z,13.98
2022-10-14T19:09:48.101Z,10.90
2022-10-14T19:12:35.250Z,11.60
2022-10-14T19:15:03.351Z,16.00
2022-10-14T19:17:31.490Z,11.85
2022-10-14T19:20:00.955Z,8.30
2022-10-14T19:22:29.098Z,8.80
2022-10-14T19:24:57.247Z,9.77
2022-10-14T19:27:26.736Z,7.72
2022-10-14T19:29:54.816Z,6.57
2022-10-14T19:32:22.990Z,7.85
2022-10-14T19:34:51.101Z,9.27
2022-10-14T19:37:19.337Z,6.82
2022-10-14T19:39:47.495Z,7.40
2022-10-14T19:42:15.629Z,7.78
2022-10-14T19:44:45.142Z,8.15
2022-10-14T19:47:13.323Z,8.25
2022-10-14T19:49:41.771Z,8.40
2022-10-14T19:52:10.095Z,8.23
2022-10-14T19:54:38.183Z,9.57
2022-10-14T19:57:06.294Z,9.50
2022-10-14T19:59:34.426Z,9.35
2022-10-14T20:02:03.930Z,9.70
2022-10-14T20:04:32.073Z,9.80
2022-10-14T20:07:00.435Z,9.95
2022-10-14T20:09:28.883Z,8.95
2022-10-14T20:11:57.031Z,10.88
2022-10-14T20:14:25.789Z,11.48
2022-10-14T20:16:55.860Z,9.07
2022-10-14T20:19:25.686Z,9.98
2022-10-14T20:21:53.806Z,11.23
2022-10-14T20:24:22.004Z,11.82
2022-10-14T20:26:50.273Z,12.77
2022-10-14T20:29:18.570Z,13.23
2022-10-14T20:31:46.777Z,15.85
2022-10-14T20:34:15.113Z,11.80
2022-10-14T20:36:44.596Z,12.27
2022-10-14T20:39:12.740Z,14.65
2022-10-14T20:41:40.882Z,16.27
2022-10-14T20:44:09.011Z,12.77
2022-10-14T20:46:37.190Z,14.10
2022-10-14T20:49:05.725Z,11.40
2022-10-14T20:51:34.033Z,12.85
2022-10-14T20:54:07.225Z,10.30
2022-10-14T20:56:38.083Z,10.00
2022-10-14T20:59:07.923Z,8.75
2022-10-14T21:01:38.087Z,9.05
2022-10-14T21:04:08.276Z,7.82
2022-10-14T21:06:38.708Z,7.68
2022-10-14T21:09:08.582Z,9.35
2022-10-14T21:11:36.763Z,9.20
2022-10-14T21:14:04.939Z,8.80
2022-10-14T21:16:35.643Z,10.27
2022-10-14T21:19:06.274Z,9.85
2022-10-14T21:21:37.194Z,9.80
2022-10-14T21:24:05.905Z,17.15
2022-10-14T21:26:35.593Z,11.43
2022-10-14T21:29:04.350Z,9.48
2022-10-14T21:31:33.041Z,10.50
2022-10-14T21:34:06.117Z,15.27
2022-10-14T21:36:35.578Z,13.18
2022-10-14T21:39:07.066Z,7.95
2022-10-14T21:41:37.170Z,9.80
2022-10-14T21:44:05.827Z,10.82
2022-10-14T21:46:34.430Z,9.35
2022-10-14T21:49:02.582Z,9.23
2022-10-14T21:51:31.914Z,10.00
2022-10-14T21:54:00.093Z,9.60
2022-10-14T21:56:28.663Z,9.70
2022-10-14T21:58:58.216Z,11.32
2022-10-14T22:01:29.323Z,9.15
2022-10-14T22:03:59.047Z,10.13
2022-10-14T22:06:28.065Z,8.87
2022-10-14T22:08:58.042Z,9.10
2022-10-14T22:11:29.246Z,8.25
2022-10-14T22:14:01.029Z,7.18
2022-10-14T22:16:30.036Z,6.80
2022-10-14T22:19:00.301Z,6.18
2022-10-14T22:21:29.747Z,6.97
2022-10-14T22:23:58.700Z,5.55
2022-10-14T22:26:28.579Z,6.00
2022-10-14T22:29:03.409Z,6.25
2022-10-14T22:31:33.130Z,5.20
2022-10-14T22:34:01.550Z,5.50
2022-10-14T22:36:30.610Z,5.22
2022-10-14T22:38:59.956Z,5.32
2022-10-14T22:41:34.842Z,5.20
2022-10-14T22:44:06.693Z,5.57
2022-10-14T22:46:37.853Z,4.68
2022-10-14T22:49:06.411Z,4.88
2022-10-14T22:51:36.826Z,4.72
2022-10-14T22:54:05.693Z,5.07
2022-10-14T22:56:34.093Z,6.47
2022-10-14T22:59:04.057Z,5.05
2022-10-14T23:01:34.074Z,5.32
2022-10-14T23:04:02.818Z,6.45
2022-10-14T23:06:31.753Z,6.22
2022-10-14T23:09:01.080Z,5.15
2022-10-14T23:11:30.578Z,6.03
2022-10-14T23:14:01.569Z,8.00
2022-10-14T23:16:34.189Z,5.63
2022-10-14T23:19:02.411Z,6.35
2022-10-14T23:21:32.505Z,5.22
2022-10-14T23:24:02.906Z,5.65
2022-10-14T23:26:33.218Z,5.30
2022-10-14T23:29:03.279Z,4.20
2022-10-14T23:31:33.212Z,5.60
2022-10-14T23:34:05.111Z,5.43
2022-10-14T23:36:33.799Z,5.22
2022-10-14T23:39:02.000Z,5.15
2022-10-14T23:41:30.207Z,5.40
2022-10-14T23:43:58.427Z,5.43
2022-10-14T23:46:26.635Z,6.53
2022-10-14T23:49:06.888Z,8.90
2022-10-14T23:51:37.494Z,8.65
2022-10-14T23:54:05.677Z,6.72
2022-10-14T23:56:33.870Z,5.90
2022-10-14T23:59:02.034Z,7.22
